Time,TemperatureF,DewpointF,PressureIn,WindDirection,WindDirectionDegrees,WindSpeedMPH,WindSpeedGustMPH,Humidity,HourlyPrecipIn,Conditions,Clouds,dailyrainin,SoftwareType,DateUTC
2013-03-06 00:00:00,36.9,30.7,29.57,West,281,0.0,0.0,78,0.00,,SKC,0.85,VWS V14.01,2013-03-06 05:00:00,
2013-03-06 00:05:00,36.9,29.4,29.59,WNW,297,0.0,0.0,74,0.00,,SKC,0.00,VWS V14.01,2013-03-06 05:05:00,
2013-03-06 00:10:00,36.9,29.1,29.59,West,266,0.0,0.0,73,0.00,,SKC,0.00,VWS V14.01,2013-03-06 05:10:00,
2013-03-06 00:15:00,36.8,29.0,29.59,WNW,297,0.0,0.0,73,0.00,,SKC,0.00,VWS V14.01,2013-03-06 05:15:00,
2013-03-06 00:20:00,36.6,28.1,29.60,West,266,0.0,0.0,71,0.00,,SKC,0.00,VWS V14.01,2013-03-06 05:20:00,
2013-03-06 00:25:00,36.5,27.7,29.60,WNW,291,0.0,0.0,70,0.00,,SKC,0.00,VWS V14.01,2013-03-06 05:25:00,
2013-03-06 00:30:00,36.2,27.4,29.60,West,268,0.0,0.0,70,0.00,,SKC,0.00,VWS V14.01,2013-03-06 05:30:00,
2013-03-06 00:35:00,36.2,27.7,29.60,West,262,0.0,0.0,71,0.00,,SKC,0.00,VWS V14.01,2013-03-06 05:35:00,
2013-03-06 00:40:00,35.8,27.7,29.60,WNW,297,0.0,0.0,72,0.00,,SKC,0.00,VWS V14.01,2013-03-06 05:40:00,
2013-03-06 00:45:00,35.8,27.3,29.60,WNW,291,0.0,0.0,71,0.00,,SKC,0.00,VWS V14.01,2013-03-06 05:45:00,
2013-03-06 00:50:00,35.6,26.1,29.60,WNW,295,0.0,0.0,68,0.00,,SKC,0.00,VWS V14.01,2013-03-06 05:50:00,
2013-03-06 00:55:00,35.6,26.8,29.60,WNW,293,0.0,0.0,70,0.00,,SKC,0.00,VWS V14.01,2013-03-06 05:55:00,
2013-03-06 01:00:00,35.3,26.2,29.60,West,274,0.0,0.0,69,0.00,,SKC,0.00,VWS V14.01,2013-03-06 06:00:00,
2013-03-06 01:05:00,35.0,25.9,29.61,WSW,258,0.0,0.0,69,0.00,,SKC,0.00,VWS V14.01,2013-03-06 06:05:00,
2013-03-06 01:10:00,35.0,25.5,29.61,NW,314,0.0,0.0,68,0.00,,SKC,0.00,VWS V14.01,2013-03-06 06:10:00,
2013-03-06 01:15:00,34.7,25.6,29.61,West,278,0.0,0.0,69,0.00,,SKC,0.00,VWS V14.01,2013-03-06 06:15:00,
2013-03-06 01:20:00,34.7,25.6,29.61,West,274,0.0,0.0,69,0.00,,SKC,0.00,VWS V14.01,2013-03-06 06:20:00,
2013-03-06 01:25:00,34.3,25.9,29.61,West,274,0.0,0.0,71,0.00,,SKC,0.00,VWS V14.01,2013-03-06 06:25:00,
2013-03-06 01:30:00,34.1,25.7,29.61,SSW,207,0.0,0.0,71,0.00,,SKC,0.00,VWS V14.01,2013-03-06 06:30:00,
2013-03-06 01:35:00,34.1,26.7,29.61,SSW,207,0.0,0.0,74,0.00,,SKC,0.00,VWS V14.01,2013-03-06 06:35:00,
2013-03-06 01:40:00,33.8,25.7,29.61,ENE,59,0.0,0.0,72,0.00,,SKC,0.00,VWS V14.01,2013-03-06 06:40:00,
2013-03-06 01:45:00,33.8,26.1,29.61,West,273,0.0,0.0,73,0.00,,SKC,0.00,VWS V14.01,2013-03-06 06:45:00,
2013-03-06 01:50:00,33.8,25.4,29.61,WSW,256,0.0,0.0,71,0.00,,SKC,0.00,VWS V14.01,2013-03-06 06:50:00,
2013-03-06 01:55:00,34.0,25.3,29.61,WNW,295,0.0,0.0,70,0.00,,SKC,0.00,VWS V14.01,2013-03-06 06:55:00,
2013-03-06 02:00:00,33.8,25.4,29.61,NW,310,0.0,0.0,71,0.00,,SKC,0.00,VWS V14.01,2013-03-06 07:00:00,
2013-03-06 02:05:00,33.7,25.3,29.61,NW,315,0.0,0.0,71,0.00,,SKC,0.00,VWS V14.01,2013-03-06 07:05:00,
2013-03-06 02:10:00,33.5,26.1,29.61,NW,314,0.0,0.0,74,0.00,,SKC,0.00,VWS V14.01,2013-03-06 07:10:00,
2013-03-06 02:15:00,33.4,25.7,29.61,WSW,257,0.0,0.0,73,0.00,,SKC,0.00,VWS V14.01,2013-03-06 07:15:00,
2013-03-06 02:20:00,33.4,25.0,29.62,West,266,0.0,0.0,71,0.00,,SKC,0.00,VWS V14.01,2013-03-06 07:20:00,
2013-03-06 02:25:00,33.5,24.1,29.62,WNW,286,0.0,0.0,68,0.00,,SKC,0.00,VWS V14.01,2013-03-06 07:25:00,
2013-03-06 02:30:00,33.5,24.4,29.62,NW,319,0.0,0.0,69,0.00,,SKC,0.00,VWS V14.01,2013-03-06 07:30:00,
2013-03-06 02:35:00,33.5,24.4,29.62,NW,304,0.0,0.0,69,0.00,,SKC,0.00,VWS V14.01,2013-03-06 07:35:00,
2013-03-06 02:40:00,33.5,23.7,29.62,WNW,286,0.0,0.0,67,0.00,,SKC,0.00,VWS V14.01,2013-03-06 07:40:00,
2013-03-06 02:45:00,33.4,25.0,29.62,West,281,0.0,0.0,71,0.00,,SKC,0.00,VWS V14.01,2013-03-06 07:45:00,
2013-03-06 02:50:00,33.1,24.4,29.62,NW,304,0.0,0.0,70,0.00,,SKC,0.00,VWS V14.01,2013-03-06 07:50:00,
2013-03-06 02:55:00,32.8,24.1,29.62,WNW,290,0.0,0.0,70,0.00,,SKC,0.00,VWS V14.01,2013-03-06 07:55:00,
2013-03-06 03:00:00,32.7,24.4,29.62,WNW,284,0.0,0.0,71,0.00,,SKC,0.00,VWS V14.01,2013-03-06 08:00:00,
2013-03-06 03:05:00,32.4,23.0,29.62,WNW,289,0.0,0.0,68,0.00,,SKC,0.00,VWS V14.01,2013-03-06 08:05:00,
2013-03-06 03:10:00,32.4,23.4,29.62,WNW,288,0.0,0.0,69,0.00,,SKC,0.00,VWS V14.01,2013-03-06 08:10:00,
2013-03-06 03:15:00,32.4,23.7,29.62,WSW,248,0.0,0.0,70,0.00,,SKC,0.00,VWS V14.01,2013-03-06 08:15:00,
2013-03-06 03:20:00,32.4,22.7,29.63,West,271,0.0,0.0,67,0.00,,SKC,0.00,VWS V14.01,2013-03-06 08:20:00,
2013-03-06 03:25:00,32.1,22.0,29.63,WNW,293,0.0,0.0,66,0.00,,SKC,0.00,VWS V14.01,2013-03-06 08:25:00,
2013-03-06 03:30:00,31.6,21.9,29.63,West,273,0.0,0.0,67,0.00,,SKC,0.00,VWS V14.01,2013-03-06 08:30:00,
2013-03-06 03:35:00,31.6,20.5,29.64,WNW,300,0.0,0.0,63,0.00,,SKC,0.00,VWS V14.01,2013-03-06 08:35:00,
2013-03-06 03:40:00,31.6,21.2,29.64,North,352,0.0,0.0,65,0.00,,SKC,0.00,VWS V14.01,2013-03-06 08:40:00,
2013-03-06 03:45:00,31.3,20.5,29.64,West,276,0.0,0.0,64,0.00,,SKC,0.00,VWS V14.01,2013-03-06 08:45:00,
2013-03-06 03:50:00,31.2,21.2,29.65,West,265,0.0,0.0,66,0.00,,SKC,0.00,VWS V14.01,2013-03-06 08:50:00,
2013-03-06 03:55:00,30.9,20.5,29.65,WNW,283,0.0,0.0,65,0.00,,SKC,0.00,VWS V14.01,2013-03-06 08:55:00,
2013-03-06 04:00:00,30.7,20.7,29.65,WNW,282,0.0,0.0,66,0.00,,SKC,0.00,VWS V14.01,2013-03-06 09:00:00,
2013-03-06 04:05:00,30.7,21.1,29.65,NW,326,0.0,0.0,67,0.00,,SKC,0.00,VWS V14.01,2013-03-06 09:05:00,
2013-03-06 04:10:00,30.6,21.0,29.65,WSW,245,0.0,0.0,67,0.00,,SKC,0.00,VWS V14.01,2013-03-06 09:10:00,
2013-03-06 04:15:00,30.4,21.5,29.65,NW,321,0.0,0.0,69,0.00,,SKC,0.00,VWS V14.01,2013-03-06 09:15:00,
2013-03-06 04:20:00,30.4,22.1,29.66,NW,314,0.0,0.0,71,0.00,,SKC,0.00,VWS V14.01,2013-03-06 09:20:00,
2013-03-06 04:25:00,30.3,21.4,29.66,WSW,257,0.0,0.0,69,0.00,,SKC,0.00,VWS V14.01,2013-03-06 09:25:00,
2013-03-06 04:30:00,30.3,20.0,29.66,NNW,333,0.0,0.0,65,0.00,,SKC,0.00,VWS V14.01,2013-03-06 09:30:00,
2013-03-06 04:35:00,30.3,20.7,29.65,WNW,282,0.0,0.0,67,0.00,,SKC,0.00,VWS V14.01,2013-03-06 09:35:00,
2013-03-06 04:40:00,30.3,20.0,29.65,WNW,297,0.0,0.0,65,0.00,,SKC,0.00,VWS V14.01,2013-03-06 09:40:00,
2013-03-06 04:45:00,30.3,21.0,29.65,WSW,242,0.0,0.0,68,0.00,,SKC,0.00,VWS V14.01,2013-03-06 09:45:00,
2013-03-06 04:50:00,30.1,20.5,29.66,West,281,0.0,0.0,67,0.00,,SKC,0.00,VWS V14.01,2013-03-06 09:50:00,
2013-03-06 04:55:00,30.0,21.4,29.66,West,269,0.0,0.0,70,0.00,,SKC,0.00,VWS V14.01,2013-03-06 09:55:00,
2013-03-06 05:00:00,29.8,20.9,29.66,West,269,0.0,0.0,69,0.00,,SKC,0.00,VWS V14.01,2013-03-06 10:00:00,
2013-03-06 05:05:00,29.7,20.1,29.66,WNW,294,0.0,0.0,67,0.00,,SKC,0.00,VWS V14.01,2013-03-06 10:05:00,
2013-03-06 05:10:00,29.5,21.3,29.66,WNW,297,0.0,0.0,71,0.00,,SKC,0.00,VWS V14.01,2013-03-06 10:10:00,
2013-03-06 05:15:00,29.4,20.8,29.66,West,268,0.0,0.0,70,0.00,,SKC,0.00,VWS V14.01,2013-03-06 10:15:00,
2013-03-06 05:20:00,29.4,20.8,29.66,WNW,282,0.0,0.0,70,0.00,,SKC,0.00,VWS V14.01,2013-03-06 10:20:00,
2013-03-06 05:25:00,29.3,21.1,29.66,West,264,0.0,0.0,71,0.00,,SKC,0.00,VWS V14.01,2013-03-06 10:25:00,
2013-03-06 05:30:00,29.0,20.8,29.66,West,259,0.0,0.0,71,0.00,,SKC,0.00,VWS V14.01,2013-03-06 10:30:00,
2013-03-06 05:35:00,28.8,20.6,29.62,WSW,258,0.0,0.0,71,0.00,,SKC,0.00,VWS V14.01,2013-03-06 10:35:00,
2013-03-06 05:40:00,28.7,20.8,29.62,West,274,0.0,0.0,72,0.00,,SKC,0.00,VWS V14.01,2013-03-06 10:40:00,
2013-03-06 05:45:00,28.5,20.6,29.62,NW,311,0.0,0.0,72,0.00,,SKC,0.00,VWS V14.01,2013-03-06 10:45:00,
2013-03-06 05:50:00,28.7,19.5,29.61,WNW,287,0.0,0.0,68,0.00,,SKC,0.00,VWS V14.01,2013-03-06 10:50:00,
2013-03-06 05:55:00,28.8,18.9,29.61,WNW,285,0.0,0.0,66,0.00,,SKC,0.00,VWS V14.01,2013-03-06 10:55:00,
2013-03-06 06:00:00,28.8,19.2,29.61,West,269,0.0,0.0,67,0.00,,SKC,0.00,VWS V14.01,2013-03-06 11:00:00,
2013-03-06 06:05:00,28.7,19.1,29.63,West,278,0.0,0.0,67,0.00,,SKC,0.00,VWS V14.01,2013-03-06 11:05:00,
2013-03-06 06:10:00,28.8,18.9,29.63,North,356,0.0,0.0,66,0.00,,SKC,0.00,VWS V14.01,2013-03-06 11:10:00,
2013-03-06 06:15:00,28.8,18.9,29.63,West,259,0.0,0.0,66,0.00,,SKC,0.00,VWS V14.01,2013-03-06 11:15:00,
2013-03-06 06:20:00,28.8,18.5,29.65,West,269,0.0,0.0,65,0.00,,SKC,0.00,VWS V14.01,2013-03-06 11:20:00,
2013-03-06 06:25:00,28.8,18.2,29.65,West,259,0.0,0.0,64,0.00,,SKC,0.00,VWS V14.01,2013-03-06 11:25:00,
2013-03-06 06:30:00,28.8,19.2,29.65,West,262,0.0,0.0,67,0.00,,SKC,0.00,VWS V14.01,2013-03-06 11:30:00,
2013-03-06 06:35:00,28.8,18.5,29.65,West,266,0.0,0.0,65,0.00,,SKC,0.00,VWS V14.01,2013-03-06 11:35:00,
2013-03-06 06:40:00,29.0,19.4,29.65,West,281,0.0,0.0,67,0.00,,SKC,0.00,VWS V14.01,2013-03-06 11:40:00,
2013-03-06 06:45:00,29.0,19.1,29.65,East,89,0.0,0.0,66,0.00,,SKC,0.00,VWS V14.01,2013-03-06 11:45:00,
2013-03-06 06:50:00,29.0,18.7,29.66,NW,304,0.0,0.0,65,0.00,,SKC,0.00,VWS V14.01,2013-03-06 11:50:00,
2013-03-06 06:55:00,29.0,19.1,29.66,North,6,0.0,0.0,66,0.00,,SKC,0.00,VWS V14.01,2013-03-06 11:55:00,
2013-03-06 07:00:00,29.0,18.7,29.66,SW,229,0.0,0.0,65,0.00,,SKC,0.00,VWS V14.01,2013-03-06 12:00:00,
2013-03-06 07:05:00,29.1,19.5,29.66,SW,229,0.0,0.0,67,0.00,,SKC,0.00,VWS V14.01,2013-03-06 12:05:00,
2013-03-06 07:10:00,29.1,19.5,29.66,East,82,0.0,0.0,67,0.00,,SKC,0.00,VWS V14.01,2013-03-06 12:10:00,
2013-03-06 07:15:00,29.1,18.8,29.66,NNW,335,0.0,0.0,65,0.00,,SKC,0.00,VWS V14.01,2013-03-06 12:15:00,
2013-03-06 07:20:00,29.1,19.5,29.66,SSW,205,0.0,0.0,67,0.00,,SKC,0.00,VWS V14.01,2013-03-06 12:20:00,
2013-03-06 07:25:00,29.1,19.5,29.66,ESE,117,0.0,0.0,67,0.00,,SKC,0.00,VWS V14.01,2013-03-06 12:25:00,
2013-03-06 07:30:00,29.1,19.9,29.66,NNE,15,0.0,0.0,68,0.00,,SKC,0.00,VWS V14.01,2013-03-06 12:30:00,
2013-03-06 07:35:00,29.3,19.4,29.66,SSE,165,0.0,0.0,66,0.00,,SKC,0.00,VWS V14.01,2013-03-06 12:35:00,
2013-03-06 07:40:00,29.4,19.5,29.66,SSW,198,0.0,0.0,66,0.00,,SKC,0.00,VWS V14.01,2013-03-06 12:40:00,
2013-03-06 07:45:00,29.5,19.6,29.66,SE,128,0.0,0.0,66,0.00,,SKC,0.00,VWS V14.01,2013-03-06 12:45:00,
2013-03-06 07:50:00,29.7,20.5,29.67,NW,324,0.0,0.0,68,0.00,,SKC,0.00,VWS V14.01,2013-03-06 12:50:00,
2013-03-06 07:55:00,29.7,19.4,29.67,NW,311,0.0,0.0,65,0.00,,SKC,0.00,VWS V14.01,2013-03-06 12:55:00,
2013-03-06 08:00:00,29.5,18.8,29.67,SSE,160,0.0,0.0,64,0.00,,SKC,0.00,VWS V14.01,2013-03-06 13:00:00,
2013-03-06 08:05:00,29.7,19.4,29.68,West,276,0.0,0.0,65,0.00,,SKC,0.00,VWS V14.01,2013-03-06 13:05:00,
2013-03-06 08:10:00,29.7,19.4,29.68,South,173,0.0,0.0,65,0.00,,SKC,0.00,VWS V14.01,2013-03-06 13:10:00,
2013-03-06 08:15:00,29.7,19.4,29.68,WNW,288,0.0,0.0,65,0.00,,SKC,0.00,VWS V14.01,2013-03-06 13:15:00,
2013-03-06 08:20:00,29.8,19.8,29.68,NW,320,0.0,0.0,66,0.00,,SKC,0.00,VWS V14.01,2013-03-06 13:20:00,
2013-03-06 08:25:00,30.1,20.1,29.68,WNW,300,0.0,0.0,66,0.00,,SKC,0.00,VWS V14.01,2013-03-06 13:25:00,
2013-03-06 08:30:00,30.3,20.0,29.68,WNW,301,0.0,0.0,65,0.00,,SKC,0.00,VWS V14.01,2013-03-06 13:30:00,
2013-03-06 08:35:00,30.4,20.1,29.68,North,352,0.0,0.0,65,0.00,,SKC,0.00,VWS V14.01,2013-03-06 13:35:00,
2013-03-06 08:40:00,30.4,19.3,29.68,East,89,0.0,0.0,63,0.00,,SKC,0.00,VWS V14.01,2013-03-06 13:40:00,
2013-03-06 08:45:00,30.6,20.6,29.68,ENE,62,0.0,0.0,66,0.00,,SKC,0.00,VWS V14.01,2013-03-06 13:45:00,
2013-03-06 08:50:00,30.6,19.5,29.68,West,274,0.0,0.0,63,0.00,,SKC,0.00,VWS V14.01,2013-03-06 13:50:00,
2013-03-06 08:55:00,30.9,19.4,29.68,West,279,0.0,0.0,62,0.00,,SKC,0.00,VWS V14.01,2013-03-06 13:55:00,
2013-03-06 09:00:00,31.2,19.7,29.68,WNW,300,0.0,0.0,62,0.00,,SKC,0.00,VWS V14.01,2013-03-06 14:00:00,
2013-03-06 09:05:00,31.2,19.3,29.69,West,279,0.0,0.0,61,0.00,,SKC,0.00,VWS V14.01,2013-03-06 14:05:00,
2013-03-06 09:10:00,31.2,19.7,29.69,North,4,0.0,0.0,62,0.00,,SKC,0.00,VWS V14.01,2013-03-06 14:10:00,
2013-03-06 09:15:00,31.3,19.8,29.69,NNW,329,0.0,0.0,62,0.00,,SKC,0.00,VWS V14.01,2013-03-06 14:15:00,
2013-03-06 09:20:00,31.3,19.4,29.69,WNW,286,0.0,0.0,61,0.00,,SKC,0.00,VWS V14.01,2013-03-06 14:20:00,
2013-03-06 09:25:00,31.6,19.7,29.69,SW,233,0.0,0.0,61,0.00,,SKC,0.00,VWS V14.01,2013-03-06 14:25:00,
2013-03-06 09:30:00,31.8,20.3,29.69,WNW,288,0.0,0.0,62,0.00,,SKC,0.00,VWS V14.01,2013-03-06 14:30:00,
2013-03-06 09:35:00,31.9,20.4,29.72,NNW,337,0.0,0.0,62,0.00,,SKC,0.00,VWS V14.01,2013-03-06 14:35:00,
2013-03-06 09:40:00,31.9,20.0,29.72,NNW,342,0.0,0.0,61,0.00,,SKC,0.00,VWS V14.01,2013-03-06 14:40:00,
2013-03-06 09:45:00,32.4,21.2,29.72,North,1,0.0,0.0,63,0.00,,SKC,0.00,VWS V14.01,2013-03-06 14:45:00,
2013-03-06 09:50:00,32.4,19.7,29.75,WSW,238,0.0,0.0,59,0.00,,SKC,0.00,VWS V14.01,2013-03-06 14:50:00,
2013-03-06 09:55:00,32.4,20.9,29.75,WSW,257,0.0,0.0,62,0.00,,SKC,0.00,VWS V14.01,2013-03-06 14:55:00,
2013-03-06 10:00:00,32.1,20.6,29.75,West,270,0.0,0.0,62,0.00,,SKC,0.00,VWS V14.01,2013-03-06 15:00:00,
2013-03-06 10:05:00,31.6,20.8,29.77,West,269,0.0,0.0,64,0.00,,SKC,0.00,VWS V14.01,2013-03-06 15:05:00,
2013-03-06 10:10:00,31.5,21.8,29.77,NNW,342,0.0,0.0,67,0.00,,SKC,0.00,VWS V14.01,2013-03-06 15:10:00,
2013-03-06 10:15:00,31.3,20.9,29.77,West,274,0.0,0.0,65,0.00,,SKC,0.00,VWS V14.01,2013-03-06 15:15:00,
2013-03-06 10:20:00,31.2,20.8,29.79,NW,310,0.0,0.0,65,0.00,,SKC,0.00,VWS V14.01,2013-03-06 15:20:00,
2013-03-06 10:25:00,31.3,21.3,29.79,North,359,0.0,0.0,66,0.00,,SKC,0.00,VWS V14.01,2013-03-06 15:25:00,
2013-03-06 10:30:00,31.3,22.0,29.79,WSW,250,0.0,0.0,68,0.00,,SKC,0.00,VWS V14.01,2013-03-06 15:30:00,
2013-03-06 10:35:00,31.3,22.0,29.79,West,262,0.0,0.0,68,0.00,,SKC,0.00,VWS V14.01,2013-03-06 15:35:00,
2013-03-06 10:40:00,31.5,21.1,29.79,West,266,0.0,0.0,65,0.00,,SKC,0.00,VWS V14.01,2013-03-06 15:40:00,
2013-03-06 10:45:00,31.6,22.3,29.79,West,279,0.0,0.0,68,0.00,,SKC,0.00,VWS V14.01,2013-03-06 15:45:00,
2013-03-06 10:50:00,32.1,23.1,29.78,West,278,0.0,0.0,69,0.00,,SKC,0.00,VWS V14.01,2013-03-06 15:50:00,
2013-03-06 10:55:00,32.1,22.0,29.78,WNW,290,0.0,0.0,66,0.00,,SKC,0.00,VWS V14.01,2013-03-06 15:55:00,
2013-03-06 11:00:00,32.1,21.3,29.78,WNW,301,0.0,0.0,64,0.00,,SKC,0.00,VWS V14.01,2013-03-06 16:00:00,
2013-03-06 11:05:00,32.2,21.8,29.80,West,271,0.0,0.0,65,0.00,,SKC,0.00,VWS V14.01,2013-03-06 16:05:00,
2013-03-06 11:10:00,32.2,21.8,29.80,WNW,294,0.0,0.0,65,0.00,,SKC,0.00,VWS V14.01,2013-03-06 16:10:00,
2013-03-06 11:15:00,32.5,21.7,29.80,WNW,283,0.0,0.0,64,0.00,,SKC,0.00,VWS V14.01,2013-03-06 16:15:00,
2013-03-06 11:20:00,32.7,21.1,29.81,WNW,290,0.0,0.0,62,0.00,,SKC,0.00,VWS V14.01,2013-03-06 16:20:00,
2013-03-06 11:25:00,32.8,22.3,29.81,NNW,332,0.0,0.0,65,0.00,,SKC,0.00,VWS V14.01,2013-03-06 16:25:00,
2013-03-06 11:30:00,32.8,22.3,29.81,NNW,335,0.0,0.0,65,0.00,,SKC,0.00,VWS V14.01,2013-03-06 16:30:00,
2013-03-06 11:35:00,32.8,21.6,29.81,North,0,0.0,0.0,63,0.00,,SKC,0.00,VWS V14.01,2013-03-06 16:35:00,
2013-03-06 11:40:00,33.1,22.6,29.81,SW,214,0.0,0.0,65,0.00,,SKC,0.00,VWS V14.01,2013-03-06 16:40:00,
2013-03-06 11:45:00,33.2,22.0,29.81,West,272,0.0,0.0,63,0.00,,SKC,0.00,VWS V14.01,2013-03-06 16:45:00,
2013-03-06 11:50:00,33.1,22.6,29.82,North,11,0.0,0.0,65,0.00,,SKC,0.00,VWS V14.01,2013-03-06 16:50:00,
2013-03-06 11:55:00,33.2,22.0,29.82,WNW,286,0.0,0.0,63,0.00,,SKC,0.00,VWS V14.01,2013-03-06 16:55:00,
2013-03-06 12:00:00,33.2,22.4,29.82,West,274,0.0,0.0,64,0.00,,SKC,0.00,VWS V14.01,2013-03-06 17:00:00,
2013-03-06 12:05:00,33.5,24.1,29.82,North,359,0.0,0.0,68,0.00,,SKC,0.00,VWS V14.01,2013-03-06 17:05:00,
2013-03-06 12:10:00,33.2,21.6,29.82,West,281,0.0,0.0,62,0.00,,SKC,0.00,VWS V14.01,2013-03-06 17:10:00,
2013-03-06 12:15:00,33.5,22.3,29.82,West,274,0.0,0.0,63,0.00,,SKC,0.00,VWS V14.01,2013-03-06 17:15:00,
2013-03-06 12:20:00,33.5,21.9,29.84,NNW,332,0.0,0.0,62,0.00,,SKC,0.00,VWS V14.01,2013-03-06 17:20:00,
2013-03-06 12:25:00,33.4,22.5,29.84,NW,309,0.0,0.0,64,0.00,,SKC,0.00,VWS V14.01,2013-03-06 17:25:00,
2013-03-06 12:30:00,33.2,21.6,29.84,NNW,338,0.0,0.0,62,0.00,,SKC,0.00,VWS V14.01,2013-03-06 17:30:00,
2013-03-06 12:35:00,33.2,22.0,29.83,West,266,0.0,0.0,63,0.00,,SKC,0.00,VWS V14.01,2013-03-06 17:35:00,
2013-03-06 12:40:00,33.7,22.8,29.83,NW,317,0.0,0.0,64,0.00,,SKC,0.00,VWS V14.01,2013-03-06 17:40:00,
2013-03-06 12:45:00,33.5,21.9,29.83,NE,51,0.0,0.0,62,0.00,,SKC,0.00,VWS V14.01,2013-03-06 17:45:00,
2013-03-06 12:50:00,33.4,22.2,29.84,NNW,345,0.0,0.0,63,0.00,,SKC,0.00,VWS V14.01,2013-03-06 17:50:00,
2013-03-06 12:55:00,33.4,21.8,29.84,WNW,298,0.0,0.0,62,0.00,,SKC,0.00,VWS V14.01,2013-03-06 17:55:00,
2013-03-06 13:00:00,33.4,22.5,29.84,West,278,0.0,0.0,64,0.00,,SKC,0.00,VWS V14.01,2013-03-06 18:00:00,
2013-03-06 13:05:00,33.7,22.1,29.85,WNW,294,0.0,0.0,62,0.00,,SKC,0.00,VWS V14.01,2013-03-06 18:05:00,
2013-03-06 13:10:00,33.5,22.3,29.85,West,279,0.0,0.0,63,0.00,,SKC,0.00,VWS V14.01,2013-03-06 18:10:00,
2013-03-06 13:15:00,33.4,21.8,29.85,West,281,0.0,0.0,62,0.00,,SKC,0.00,VWS V14.01,2013-03-06 18:15:00,
2013-03-06 13:20:00,33.2,22.0,29.85,WNW,297,0.0,0.0,63,0.00,,SKC,0.00,VWS V14.01,2013-03-06 18:20:00,
2013-03-06 13:25:00,33.5,23.0,29.85,WNW,297,0.0,0.0,65,0.00,,SKC,0.00,VWS V14.01,2013-03-06 18:25:00,
2013-03-06 13:30:00,34.0,23.5,29.85,WNW,292,0.0,0.0,65,0.00,,SKC,0.00,VWS V14.01,2013-03-06 18:30:00,
2013-03-06 13:35:00,34.3,23.8,29.85,West,269,0.0,0.0,65,0.00,,SKC,0.00,VWS V14.01,2013-03-06 18:35:00,
2013-03-06 13:40:00,34.0,22.7,29.85,WNW,287,0.0,0.0,63,0.00,,SKC,0.00,VWS V14.01,2013-03-06 18:40:00,
2013-03-06 13:45:00,34.1,22.5,29.85,WSW,257,0.0,0.0,62,0.00,,SKC,0.00,VWS V14.01,2013-03-06 18:45:00,
2013-03-06 13:50:00,34.7,23.4,29.84,NNW,331,0.0,0.0,63,0.00,,SKC,0.00,VWS V14.01,2013-03-06 18:50:00,
2013-03-06 13:55:00,35.0,22.9,29.84,NW,309,0.0,0.0,61,0.00,,SKC,0.00,VWS V14.01,2013-03-06 18:55:00,
2013-03-06 14:00:00,34.7,23.0,29.84,North,1,0.0,0.0,62,0.00,,SKC,0.00,VWS V14.01,2013-03-06 19:00:00,
2013-03-06 14:05:00,35.2,23.5,29.83,NW,316,0.0,0.0,62,0.00,,SKC,0.00,VWS V14.01,2013-03-06 19:05:00,
2013-03-06 14:10:00,35.0,22.1,29.83,West,273,0.0,0.0,59,0.00,,SKC,0.00,VWS V14.01,2013-03-06 19:10:00,
2013-03-06 14:15:00,35.2,23.9,29.83,WNW,298,0.0,0.0,63,0.00,,SKC,0.00,VWS V14.01,2013-03-06 19:15:00,
2013-03-06 14:20:00,34.9,23.2,29.84,WNW,287,0.0,0.0,62,0.00,,SKC,0.00,VWS V14.01,2013-03-06 19:20:00,
2013-03-06 14:25:00,34.7,23.0,29.84,NNW,348,0.0,0.0,62,0.00,,SKC,0.00,VWS V14.01,2013-03-06 19:25:00,
2013-03-06 14:30:00,35.3,23.6,29.84,NW,315,0.0,0.0,62,0.00,,SKC,0.00,VWS V14.01,2013-03-06 19:30:00,
2013-03-06 14:35:00,35.0,23.3,29.84,North,1,0.0,0.0,62,0.00,,SKC,0.00,VWS V14.01,2013-03-06 19:35:00,
2013-03-06 14:40:00,34.9,23.2,29.84,West,272,0.0,0.0,62,0.00,,SKC,0.00,VWS V14.01,2013-03-06 19:40:00,
2013-03-06 14:45:00,34.7,23.0,29.84,NNW,330,0.0,0.0,62,0.00,,SKC,0.00,VWS V14.01,2013-03-06 19:45:00,
2013-03-06 14:50:00,34.6,22.5,29.85,NNW,335,0.0,0.0,61,0.00,,SKC,0.00,VWS V14.01,2013-03-06 19:50:00,
2013-03-06 14:55:00,34.4,22.7,29.85,WNW,291,0.0,0.0,62,0.00,,SKC,0.00,VWS V14.01,2013-03-06 19:55:00,
2013-03-06 15:00:00,35.2,23.5,29.85,North,0,0.0,0.0,62,0.00,,SKC,0.00,VWS V14.01,2013-03-06 20:00:00,
2013-03-06 15:05:00,35.3,23.6,29.87,West,277,0.0,0.0,62,0.00,,SKC,0.00,VWS V14.01,2013-03-06 20:05:00,
2013-03-06 15:10:00,35.3,23.2,29.87,West,266,0.0,0.0,61,0.00,,SKC,0.00,VWS V14.01,2013-03-06 20:10:00,
2013-03-06 15:15:00,35.8,22.9,29.87,North,356,0.0,0.0,59,0.00,,SKC,0.00,VWS V14.01,2013-03-06 20:15:00,
2013-03-06 15:20:00,35.5,23.4,29.90,WNW,300,0.0,0.0,61,0.00,,SKC,0.00,VWS V14.01,2013-03-06 20:20:00,
2013-03-06 15:25:00,35.6,23.9,29.90,WNW,301,0.0,0.0,62,0.00,,SKC,0.00,VWS V14.01,2013-03-06 20:25:00,
2013-03-06 15:30:00,35.3,23.6,29.90,West,266,0.0,0.0,62,0.00,,SKC,0.00,VWS V14.01,2013-03-06 20:30:00,
2013-03-06 15:35:00,35.2,23.1,29.91,West,269,0.0,0.0,61,0.00,,SKC,0.00,VWS V14.01,2013-03-06 20:35:00,
2013-03-06 15:40:00,34.7,23.0,29.91,West,277,0.0,0.0,62,0.00,,SKC,0.00,VWS V14.01,2013-03-06 20:40:00,
2013-03-06 15:45:00,34.4,23.1,29.91,WNW,295,0.0,0.0,63,0.00,,SKC,0.00,VWS V14.01,2013-03-06 20:45:00,
2013-03-06 15:50:00,34.3,23.4,29.92,WSW,257,0.0,0.0,64,0.00,,SKC,0.00,VWS V14.01,2013-03-06 20:50:00,
2013-03-06 15:55:00,33.8,23.3,29.92,NW,323,0.0,0.0,65,0.00,,SKC,0.00,VWS V14.01,2013-03-06 20:55:00,
2013-03-06 16:00:00,33.4,22.9,29.92,WNW,282,0.0,0.0,65,0.00,,SKC,0.00,VWS V14.01,2013-03-06 21:00:00,
2013-03-06 16:05:00,33.2,23.1,29.93,NNW,336,0.0,0.0,66,0.00,,SKC,0.00,VWS V14.01,2013-03-06 21:05:00,
2013-03-06 16:10:00,33.1,23.4,29.93,West,277,0.0,0.0,67,0.00,,SKC,0.00,VWS V14.01,2013-03-06 21:10:00,
2013-03-06 16:15:00,33.2,23.1,29.93,NW,320,0.0,0.0,66,0.00,,SKC,0.00,VWS V14.01,2013-03-06 21:15:00,
2013-03-06 16:20:00,33.4,23.3,29.94,West,279,0.0,0.0,66,0.00,,SKC,0.00,VWS V14.01,2013-03-06 21:20:00,
2013-03-06 16:25:00,33.4,23.3,29.94,NW,322,0.0,0.0,66,0.00,,SKC,0.00,VWS V14.01,2013-03-06 21:25:00,
2013-03-06 16:30:00,33.2,23.1,29.94,NW,310,0.0,0.0,66,0.00,,SKC,0.00,VWS V14.01,2013-03-06 21:30:00,
2013-03-06 16:35:00,33.2,23.1,29.95,NW,318,0.0,0.0,66,0.00,,SKC,0.00,VWS V14.01,2013-03-06 21:35:00,
2013-03-06 16:40:00,33.1,23.0,29.95,WNW,284,0.0,0.0,66,0.00,,SKC,0.00,VWS V14.01,2013-03-06 21:40:00,
2013-03-06 16:44:00,32.9,23.5,29.95,West,281,0.0,0.0,68,0.00,,SKC,0.00,VWS V14.01,2013-03-06 21:44:00,
2013-03-06 16:49:00,32.9,23.2,29.97,WNW,297,0.0,0.0,67,0.00,,SKC,0.00,VWS V14.01,2013-03-06 21:49:00,
2013-03-06 16:54:00,32.9,23.2,29.97,WSW,256,0.0,0.0,67,0.00,,SKC,0.00,VWS V14.01,2013-03-06 21:54:00,
2013-03-06 16:59:00,32.9,23.5,29.97,WNW,302,0.0,0.0,68,0.00,,SKC,0.00,VWS V14.01,2013-03-06 21:59:00,
2013-03-06 17:04:00,32.9,23.2,29.99,West,259,0.0,0.0,67,0.00,,SKC,0.00,VWS V14.01,2013-03-06 22:04:00,
2013-03-06 17:10:00,33.1,23.7,29.99,WSW,250,0.0,0.0,68,0.00,,SKC,0.00,VWS V14.01,2013-03-06 22:10:00,
2013-03-06 17:15:00,33.1,23.4,29.99,ESE,103,0.0,0.0,67,0.00,,SKC,0.00,VWS V14.01,2013-03-06 22:15:00,
2013-03-06 17:20:00,33.1,23.4,30.00,SSW,210,0.0,0.0,67,0.00,,SKC,0.00,VWS V14.01,2013-03-06 22:20:00,
2013-03-06 17:25:00,33.1,23.7,30.00,SW,236,0.0,0.0,68,0.00,,SKC,0.00,VWS V14.01,2013-03-06 22:25:00,
2013-03-06 17:30:00,33.1,23.7,30.00,WSW,240,0.0,0.0,68,0.00,,SKC,0.00,VWS V14.01,2013-03-06 22:30:00,
2013-03-06 17:35:00,33.1,23.7,30.00,SE,140,0.0,0.0,68,0.00,,SKC,0.00,VWS V14.01,2013-03-06 22:35:00,
2013-03-06 17:40:00,32.9,23.2,30.00,WNW,285,0.0,0.0,67,0.00,,SKC,0.00,VWS V14.01,2013-03-06 22:40:00,
2013-03-06 17:45:00,32.7,23.0,30.00,WNW,297,0.0,0.0,67,0.00,,SKC,0.00,VWS V14.01,2013-03-06 22:45:00,
2013-03-06 17:50:00,32.7,23.3,30.02,North,358,0.0,0.0,68,0.00,,SKC,0.00,VWS V14.01,2013-03-06 22:50:00,
2013-03-06 17:55:00,32.7,23.3,30.02,WNW,288,0.0,0.0,68,0.00,,SKC,0.00,VWS V14.01,2013-03-06 22:55:00,
2013-03-06 18:00:00,32.7,23.7,30.02,North,3,0.0,0.0,69,0.00,,SKC,0.00,VWS V14.01,2013-03-06 23:00:00,
2013-03-06 18:05:00,32.5,23.1,30.03,WNW,302,0.0,0.0,68,0.00,,SKC,0.00,VWS V14.01,2013-03-06 23:05:00,
2013-03-06 18:10:00,32.5,23.5,30.03,NW,316,0.0,0.0,69,0.00,,SKC,0.00,VWS V14.01,2013-03-06 23:10:00,
2013-03-06 18:15:00,32.4,23.0,30.03,West,278,0.0,0.0,68,0.00,,SKC,0.00,VWS V14.01,2013-03-06 23:15:00,
2013-03-06 18:20:00,32.4,23.0,30.04,West,278,0.0,0.0,68,0.00,,SKC,0.00,VWS V14.01,2013-03-06 23:20:00,
2013-03-06 18:25:00,32.2,23.2,30.04,West,276,0.0,0.0,69,0.00,,SKC,0.00,VWS V14.01,2013-03-06 23:25:00,
2013-03-06 18:30:00,32.2,22.8,30.04,NNE,31,0.0,0.0,68,0.00,,SKC,0.00,VWS V14.01,2013-03-06 23:30:00,
2013-03-06 18:35:00,32.2,22.8,30.05,NW,305,0.0,0.0,68,0.00,,SKC,0.00,VWS V14.01,2013-03-06 23:35:00,
2013-03-06 18:40:00,32.2,22.8,30.05,WNW,288,0.0,0.0,68,0.00,,SKC,0.00,VWS V14.01,2013-03-06 23:40:00,
2013-03-06 18:45:00,32.2,22.8,30.05,WNW,292,0.0,0.0,68,0.00,,SKC,0.00,VWS V14.01,2013-03-06 23:45:00,
2013-03-06 18:50:00,32.2,22.8,30.04,WNW,301,0.0,0.0,68,0.00,,SKC,0.00,VWS V14.01,2013-03-06 23:50:00,
2013-03-06 18:55:00,32.1,22.8,30.04,WNW,288,0.0,0.0,68,0.00,,SKC,0.00,VWS V14.01,2013-03-06 23:55:00,
2013-03-06 19:00:00,32.2,22.8,30.04,NNW,328,0.0,0.0,68,0.00,,SKC,0.00,VWS V14.01,2013-03-07 00:00:00,
2013-03-06 19:05:00,32.1,22.8,30.04,WNW,283,0.0,0.0,68,0.00,,SKC,0.00,VWS V14.01,2013-03-07 00:05:00,
2013-03-06 19:10:00,32.1,22.8,30.04,West,278,0.0,0.0,68,0.00,,SKC,0.00,VWS V14.01,2013-03-07 00:10:00,
2013-03-06 19:15:00,31.9,22.9,30.04,West,278,0.0,0.0,69,0.00,,SKC,0.00,VWS V14.01,2013-03-07 00:15:00,
2013-03-06 19:20:00,31.9,22.9,30.04,NW,305,0.0,0.0,69,0.00,,SKC,0.00,VWS V14.01,2013-03-07 00:20:00,
2013-03-06 19:25:00,31.9,22.5,30.04,NW,307,0.0,0.0,68,0.00,,SKC,0.00,VWS V14.01,2013-03-07 00:25:00,
2013-03-06 19:30:00,32.1,22.8,30.04,WNW,288,0.0,0.0,68,0.00,,SKC,0.00,VWS V14.01,2013-03-07 00:30:00,
2013-03-06 19:35:00,32.1,22.8,30.03,NW,321,0.0,0.0,68,0.00,,SKC,0.00,VWS V14.01,2013-03-07 00:35:00,
2013-03-06 19:40:00,31.9,22.5,30.03,NW,323,0.0,0.0,68,0.00,,SKC,0.00,VWS V14.01,2013-03-07 00:40:00,
2013-03-06 19:45:00,31.9,22.9,30.03,NW,324,0.0,0.0,69,0.00,,SKC,0.00,VWS V14.01,2013-03-07 00:45:00,
2013-03-06 19:50:00,31.9,22.5,30.05,NW,304,0.0,0.0,68,0.00,,SKC,0.00,VWS V14.01,2013-03-07 00:50:00,
2013-03-06 19:55:00,31.8,22.8,30.05,NNW,333,0.0,0.0,69,0.00,,SKC,0.00,VWS V14.01,2013-03-07 00:55:00,
2013-03-06 20:00:00,31.6,22.6,30.05,NW,325,0.0,0.0,69,0.00,,SKC,0.00,VWS V14.01,2013-03-07 01:00:00,
2013-03-06 20:05:00,31.6,22.6,30.05,WNW,299,0.0,0.0,69,0.00,,SKC,0.00,VWS V14.01,2013-03-07 01:05:00,
2013-03-06 20:10:00,31.5,22.9,30.05,West,267,0.0,0.0,70,0.00,,SKC,0.00,VWS V14.01,2013-03-07 01:10:00,
2013-03-06 20:15:00,31.5,22.9,30.05,NW,309,0.0,0.0,70,0.00,,SKC,0.00,VWS V14.01,2013-03-07 01:15:00,
2013-03-06 20:20:00,31.5,22.5,30.06,NW,315,0.0,0.0,69,0.00,,SKC,0.00,VWS V14.01,2013-03-07 01:20:00,
2013-03-06 20:25:00,31.6,22.6,30.06,WNW,295,0.0,0.0,69,0.00,,SKC,0.00,VWS V14.01,2013-03-07 01:25:00,
2013-03-06 20:30:00,31.6,22.6,30.06,NW,309,0.0,0.0,69,0.00,,SKC,0.00,VWS V14.01,2013-03-07 01:30:00,
2013-03-06 20:35:00,31.6,22.6,30.05,West,278,0.0,0.0,69,0.00,,SKC,0.00,VWS V14.01,2013-03-07 01:35:00,
2013-03-06 20:40:00,31.8,22.8,30.05,WNW,283,0.0,0.0,69,0.00,,SKC,0.00,VWS V14.01,2013-03-07 01:40:00,
2013-03-06 20:45:00,31.5,22.9,30.05,WNW,283,0.0,0.0,70,0.00,,SKC,0.00,VWS V14.01,2013-03-07 01:45:00,
2013-03-06 20:50:00,31.6,22.6,30.05,NW,326,0.0,0.0,69,0.00,,SKC,0.00,VWS V14.01,2013-03-07 01:50:00,
2013-03-06 20:55:00,31.6,23.0,30.05,NW,306,0.0,0.0,70,0.00,,SKC,0.00,VWS V14.01,2013-03-07 01:55:00,
2013-03-06 21:00:00,31.5,22.9,30.05,NW,304,0.0,0.0,70,0.00,,SKC,0.00,VWS V14.01,2013-03-07 02:00:00,
2013-03-06 21:05:00,31.5,22.9,30.07,NW,312,0.0,0.0,70,0.00,,SKC,0.00,VWS V14.01,2013-03-07 02:05:00,
2013-03-06 21:10:00,31.5,22.9,30.07,NNW,328,0.0,0.0,70,0.00,,SKC,0.00,VWS V14.01,2013-03-07 02:10:00,
2013-03-06 21:15:00,31.5,22.9,30.07,NW,305,0.0,0.0,70,0.00,,SKC,0.00,VWS V14.01,2013-03-07 02:15:00,
2013-03-06 21:20:00,31.5,22.9,30.05,NNW,339,0.0,0.0,70,0.00,,SKC,0.00,VWS V14.01,2013-03-07 02:20:00,
2013-03-06 21:25:00,31.6,23.0,30.05,WSW,252,0.0,0.0,70,0.00,,SKC,0.00,VWS V14.01,2013-03-07 02:25:00,
2013-03-06 21:30:00,31.5,22.9,30.05,WNW,283,0.0,0.0,70,0.00,,SKC,0.00,VWS V14.01,2013-03-07 02:30:00,
2013-03-06 21:35:00,31.5,22.9,30.06,West,279,0.0,0.0,70,0.00,,SKC,0.00,VWS V14.01,2013-03-07 02:35:00,
2013-03-06 21:40:00,31.5,23.2,30.06,NW,324,0.0,0.0,71,0.00,,SKC,0.00,VWS V14.01,2013-03-07 02:40:00,
2013-03-06 21:45:00,31.6,23.0,30.06,WNW,292,0.0,0.0,70,0.00,,SKC,0.00,VWS V14.01,2013-03-07 02:45:00,
2013-03-06 21:50:00,31.6,23.3,30.06,West,266,0.0,0.0,71,0.00,,SKC,0.00,VWS V14.01,2013-03-07 02:50:00,
2013-03-06 21:55:00,31.6,23.6,30.06,WNW,302,0.0,0.0,72,0.00,,SKC,0.00,VWS V14.01,2013-03-07 02:55:00,
2013-03-06 22:00:00,31.6,23.3,30.06,WNW,300,0.0,0.0,71,0.00,,SKC,0.00,VWS V14.01,2013-03-07 03:00:00,
2013-03-06 22:05:00,31.6,23.3,30.07,North,355,0.0,0.0,71,0.00,,SKC,0.00,VWS V14.01,2013-03-07 03:05:00,
2013-03-06 22:10:00,31.6,23.3,30.07,NNW,327,0.0,0.0,71,0.00,,SKC,0.00,VWS V14.01,2013-03-07 03:10:00,
2013-03-06 22:15:00,31.6,23.0,30.07,North,349,0.0,0.0,70,0.00,,SKC,0.00,VWS V14.01,2013-03-07 03:15:00,
2013-03-06 22:20:00,31.6,23.3,30.07,WNW,283,0.0,0.0,71,0.00,,SKC,0.00,VWS V14.01,2013-03-07 03:20:00,
2013-03-06 22:25:00,31.6,23.3,30.07,WNW,297,0.0,0.0,71,0.00,,SKC,0.00,VWS V14.01,2013-03-07 03:25:00,
2013-03-06 22:30:00,31.6,23.3,30.07,NW,304,0.0,0.0,71,0.00,,SKC,0.00,VWS V14.01,2013-03-07 03:30:00,
2013-03-06 22:35:00,31.6,23.3,30.08,West,266,0.0,0.0,71,0.00,,SKC,0.00,VWS V14.01,2013-03-07 03:35:00,
2013-03-06 22:40:00,31.6,23.0,30.08,NW,307,0.0,0.0,70,0.00,,SKC,0.00,VWS V14.01,2013-03-07 03:40:00,
2013-03-06 22:45:00,31.6,23.0,30.08,North,11,0.0,0.0,70,0.00,,SKC,0.00,VWS V14.01,2013-03-07 03:45:00,
2013-03-06 22:50:00,31.6,23.0,30.08,WNW,302,0.0,0.0,70,0.00,,SKC,0.00,VWS V14.01,2013-03-07 03:50:00,
2013-03-06 22:55:00,31.6,23.0,30.08,NW,324,0.0,0.0,70,0.00,,SKC,0.00,VWS V14.01,2013-03-07 03:55:00,
2013-03-06 23:00:00,31.5,22.5,30.08,NW,324,0.0,0.0,69,0.00,,SKC,0.00,VWS V14.01,2013-03-07 04:00:00,
2013-03-06 23:05:00,31.5,22.9,30.08,SE,127,0.0,0.0,70,0.00,,SKC,0.00,VWS V14.01,2013-03-07 04:05:00,
2013-03-06 23:10:00,31.3,23.0,30.08,WNW,295,0.0,0.0,71,0.00,,SKC,0.00,VWS V14.01,2013-03-07 04:10:00,
2013-03-06 23:15:00,31.2,22.6,30.08,WNW,295,0.0,0.0,70,0.00,,SKC,0.00,VWS V14.01,2013-03-07 04:15:00,
2013-03-06 23:20:00,31.5,22.5,30.08,West,278,0.0,0.0,69,0.00,,SKC,0.00,VWS V14.01,2013-03-07 04:20:00,
2013-03-06 23:25:00,31.5,22.9,30.08,West,259,0.0,0.0,70,0.00,,SKC,0.00,VWS V14.01,2013-03-07 04:25:00,
2013-03-06 23:30:00,31.5,22.5,30.08,NNW,340,0.0,0.0,69,0.00,,SKC,0.00,VWS V14.01,2013-03-07 04:30:00,
2013-03-06 23:35:00,31.5,22.5,30.08,WNW,295,0.0,0.0,69,0.00,,SKC,0.00,VWS V14.01,2013-03-07 04:35:00,
2013-03-06 23:40:00,31.5,22.5,30.08,West,281,0.0,0.0,69,0.00,,SKC,0.00,VWS V14.01,2013-03-07 04:40:00,
2013-03-06 23:45:00,31.3,22.7,30.08,WNW,283,0.0,0.0,70,0.00,,SKC,0.00,VWS V14.01,2013-03-07 04:45:00,
2013-03-06 23:50:00,31.2,22.6,30.08,WNW,286,0.0,0.0,70,0.00,,SKC,0.00,VWS V14.01,2013-03-07 04:50:00,
2013-03-06 23:55:00,31.0,22.7,30.08,WNW,286,0.0,0.0,71,0.00,,SKC,0.00,VWS V14.01,2013-03-07 04:55:00,